Terminal Aerodrome Forecast
Issued by NWS

Home | Current Version | Previous Version | Text Only | Print | Product List | Glossary On
Versions: 1 2 3 4 5 6 7 8 9 10 11 12 13 14 15 16 17
000
FTUS43 KIWX 152300
TAFSBN
TAF
KSBN 152339Z 1600/1624 34005KT P6SM SCT008 OVC015
      TEMPO 1600/1603 6SM -RA BR BKN008 OVC015
     FM160400 35003KT 6SM BR OVC008
      TEMPO 1610/1614 SCT008 BKN015
     FM161400 31005KT P6SM BKN020
     FM161600 30008KT P6SM BKN035=

USA.gov is the U.S. government's official web portal to all federal, state and local government web resources and services.